sensor_id;sensor_type;location;lat;lon;timestamp;P1;durP1;ratioP1;P2;durP2;ratioP2
65463;SDS011;52063;45.110;9.870;2023-03-17T00:02:25;1.87;;;1.10;;
65463;SDS011;52063;45.110;9.870;2023-03-17T00:04:50;3.58;;;1.55;;
65463;SDS011;52063;45.110;9.870;2023-03-17T00:07:16;1.40;;;1.10;;
65463;SDS011;52063;45.110;9.870;2023-03-17T00:09:42;2.05;;;1.10;;
65463;SDS011;52063;45.110;9.870;2023-03-17T00:12:08;1.70;;;1.27;;
65463;SDS011;52063;45.110;9.870;2023-03-17T00:14:34;1.73;;;1.50;;
65463;SDS011;52063;45.110;9.870;2023-03-17T00:17:00;2.63;;;1.37;;
65463;SDS011;52063;45.110;9.870;2023-03-17T00:19:27;1.55;;;1.00;;
65463;SDS011;52063;45.110;9.870;2023-03-17T00:21:58;3.45;;;1.38;;
65463;SDS011;52063;45.110;9.870;2023-03-17T00:24:24;2.87;;;1.70;;
65463;SDS011;52063;45.110;9.870;2023-03-17T00:26:49;1.45;;;1.15;;
65463;SDS011;52063;45.110;9.870;2023-03-17T00:29:15;1.50;;;1.10;;
65463;SDS011;52063;45.110;9.870;2023-03-17T00:31:42;1.50;;;1.00;;
65463;SDS011;52063;45.110;9.870;2023-03-17T00:34:14;1.63;;;1.20;;
65463;SDS011;52063;45.110;9.870;2023-03-17T00:36:40;1.77;;;1.50;;
65463;SDS011;52063;45.110;9.870;2023-03-17T00:39:10;1.33;;;1.20;;
65463;SDS011;52063;45.110;9.870;2023-03-17T00:41:37;2.00;;;1.30;;
65463;SDS011;52063;45.110;9.870;2023-03-17T00:44:05;2.08;;;1.17;;
65463;SDS011;52063;45.110;9.870;2023-03-17T00:46:31;1.92;;;1.40;;
65463;SDS011;52063;45.110;9.870;2023-03-17T00:49:09;2.00;;;1.27;;
65463;SDS011;52063;45.110;9.870;2023-03-17T00:51:41;1.73;;;1.10;;
65463;SDS011;52063;45.110;9.870;2023-03-17T00:54:08;1.60;;;1.30;;
65463;SDS011;52063;45.110;9.870;2023-03-17T00:56:34;1.67;;;1.20;;
65463;SDS011;52063;45.110;9.870;2023-03-17T00:59:03;1.45;;;1.23;;
65463;SDS011;52063;45.110;9.870;2023-03-17T01:01:28;2.83;;;1.27;;
65463;SDS011;52063;45.110;9.870;2023-03-17T01:03:54;1.70;;;1.20;;
65463;SDS011;52063;45.110;9.870;2023-03-17T01:06:20;1.85;;;1.15;;
65463;SDS011;52063;45.110;9.870;2023-03-17T01:08:46;1.80;;;1.17;;
65463;SDS011;52063;45.110;9.870;2023-03-17T01:11:16;2.20;;;1.27;;
65463;SDS011;52063;45.110;9.870;2023-03-17T01:13:43;2.58;;;1.23;;
65463;SDS011;52063;45.110;9.870;2023-03-17T01:16:09;1.45;;;1.20;;
65463;SDS011;52063;45.110;9.870;2023-03-17T01:18:35;1.95;;;1.25;;
65463;SDS011;52063;45.110;9.870;2023-03-17T01:21:00;1.50;;;1.37;;
65463;SDS011;52063;45.110;9.870;2023-03-17T01:23:26;3.15;;;1.40;;
65463;SDS011;52063;45.110;9.870;2023-03-17T01:25:52;3.20;;;1.40;;
65463;SDS011;52063;45.110;9.870;2023-03-17T01:28:18;1.70;;;1.30;;
65463;SDS011;52063;45.110;9.870;2023-03-17T01:30:45;3.08;;;1.20;;
65463;SDS011;52063;45.110;9.870;2023-03-17T01:33:11;3.08;;;1.30;;
65463;SDS011;52063;45.110;9.870;2023-03-17T01:35:39;1.63;;;0.90;;
65463;SDS011;52063;45.110;9.870;2023-03-17T01:38:05;6.55;;;1.40;;
65463;SDS011;52063;45.110;9.870;2023-03-17T01:40:36;4.40;;;1.30;;
65463;SDS011;52063;45.110;9.870;2023-03-17T01:48:45;1.48;;;1.20;;
65463;SDS011;52063;45.110;9.870;2023-03-17T01:51:17;2.13;;;1.40;;
65463;SDS011;52063;45.110;9.870;2023-03-17T01:53:49;2.13;;;1.40;;
65463;SDS011;52063;45.110;9.870;2023-03-17T01:56:16;1.70;;;1.02;;
65463;SDS011;52063;45.110;9.870;2023-03-17T01:58:43;1.70;;;1.33;;
65463;SDS011;52063;45.110;9.870;2023-03-17T02:01:10;3.42;;;1.35;;
65463;SDS011;52063;45.110;9.870;2023-03-17T02:03:35;1.87;;;1.10;;
65463;SDS011;52063;45.110;9.870;2023-03-17T02:06:01;2.97;;;1.20;;
65463;SDS011;52063;45.110;9.870;2023-03-17T02:08:27;2.27;;;1.43;;
65463;SDS011;52063;45.110;9.870;2023-03-17T02:10:53;2.15;;;1.20;;
65463;SDS011;52063;45.110;9.870;2023-03-17T02:13:20;3.60;;;0.87;;
65463;SDS011;52063;45.110;9.870;2023-03-17T02:15:51;2.15;;;1.30;;
65463;SDS011;52063;45.110;9.870;2023-03-17T02:18:18;1.65;;;1.23;;
65463;SDS011;52063;45.110;9.870;2023-03-17T02:23:11;1.47;;;1.00;;
65463;SDS011;52063;45.110;9.870;2023-03-17T02:25:39;1.98;;;1.15;;
65463;SDS011;52063;45.110;9.870;2023-03-17T02:28:07;1.38;;;0.95;;
65463;SDS011;52063;45.110;9.870;2023-03-17T02:30:39;2.90;;;1.20;;
65463;SDS011;52063;45.110;9.870;2023-03-17T02:33:06;1.63;;;1.05;;
65463;SDS011;52063;45.110;9.870;2023-03-17T02:35:31;2.08;;;1.10;;
65463;SDS011;52063;45.110;9.870;2023-03-17T02:37:57;2.43;;;0.90;;
65463;SDS011;52063;45.110;9.870;2023-03-17T02:40:22;1.50;;;1.03;;
65463;SDS011;52063;45.110;9.870;2023-03-17T02:42:48;1.48;;;1.38;;
65463;SDS011;52063;45.110;9.870;2023-03-17T02:45:14;1.50;;;1.10;;
65463;SDS011;52063;45.110;9.870;2023-03-17T02:47:40;2.83;;;1.40;;
65463;SDS011;52063;45.110;9.870;2023-03-17T02:50:06;2.85;;;1.10;;
65463;SDS011;52063;45.110;9.870;2023-03-17T02:52:33;2.13;;;1.20;;
65463;SDS011;52063;45.110;9.870;2023-03-17T02:54:59;1.23;;;0.97;;
65463;SDS011;52063;45.110;9.870;2023-03-17T02:57:24;1.63;;;1.30;;
65463;SDS011;52063;45.110;9.870;2023-03-17T02:59:50;1.30;;;1.20;;
65463;SDS011;52063;45.110;9.870;2023-03-17T03:02:15;1.80;;;1.05;;
65463;SDS011;52063;45.110;9.870;2023-03-17T03:04:41;1.97;;;1.10;;
65463;SDS011;52063;45.110;9.870;2023-03-17T03:07:07;2.97;;;0.85;;
65463;SDS011;52063;45.110;9.870;2023-03-17T03:09:34;1.92;;;1.10;;
65463;SDS011;52063;45.110;9.870;2023-03-17T03:12:00;3.25;;;1.10;;
65463;SDS011;52063;45.110;9.870;2023-03-17T03:14:25;1.37;;;1.00;;
65463;SDS011;52063;45.110;9.870;2023-03-17T03:16:51;2.50;;;1.30;;
65463;SDS011;52063;45.110;9.870;2023-03-17T03:19:16;3.10;;;1.20;;
65463;SDS011;52063;45.110;9.870;2023-03-17T03:21:42;1.40;;;1.00;;
65463;SDS011;52063;45.110;9.870;2023-03-17T03:24:08;1.92;;;1.38;;
65463;SDS011;52063;45.110;9.870;2023-03-17T03:26:33;2.60;;;1.00;;
65463;SDS011;52063;45.110;9.870;2023-03-17T03:28:59;1.63;;;1.00;;
65463;SDS011;52063;45.110;9.870;2023-03-17T03:31:25;1.57;;;1.13;;
65463;SDS011;52063;45.110;9.870;2023-03-17T03:33:51;1.95;;;0.93;;
65463;SDS011;52063;45.110;9.870;2023-03-17T03:36:16;1.88;;;1.20;;
65463;SDS011;52063;45.110;9.870;2023-03-17T03:38:42;1.47;;;1.10;;
65463;SDS011;52063;45.110;9.870;2023-03-17T03:41:08;1.90;;;1.10;;
65463;SDS011;52063;45.110;9.870;2023-03-17T03:43:34;1.45;;;1.10;;
65463;SDS011;52063;45.110;9.870;2023-03-17T03:46:00;1.90;;;1.10;;
65463;SDS011;52063;45.110;9.870;2023-03-17T03:48:26;2.60;;;1.27;;
65463;SDS011;52063;45.110;9.870;2023-03-17T03:50:55;1.53;;;1.10;;
65463;SDS011;52063;45.110;9.870;2023-03-17T03:53:21;2.88;;;1.08;;
65463;SDS011;52063;45.110;9.870;2023-03-17T03:55:47;2.20;;;1.20;;
65463;SDS011;52063;45.110;9.870;2023-03-17T03:58:12;1.30;;;0.90;;
65463;SDS011;52063;45.110;9.870;2023-03-17T04:00:38;4.10;;;1.33;;
65463;SDS011;52063;45.110;9.870;2023-03-17T04:03:03;1.50;;;1.40;;
65463;SDS011;52063;45.110;9.870;2023-03-17T04:05:29;2.30;;;1.20;;
65463;SDS011;52063;45.110;9.870;2023-03-17T04:07:54;1.48;;;1.13;;
65463;SDS011;52063;45.110;9.870;2023-03-17T04:10:20;3.43;;;1.17;;
65463;SDS011;52063;45.110;9.870;2023-03-17T04:12:47;1.10;;;1.00;;
65463;SDS011;52063;45.110;9.870;2023-03-17T04:15:13;2.78;;;1.02;;
65463;SDS011;52063;45.110;9.870;2023-03-17T04:17:40;1.53;;;1.10;;
65463;SDS011;52063;45.110;9.870;2023-03-17T04:20:06;1.20;;;1.10;;
65463;SDS011;52063;45.110;9.870;2023-03-17T04:22:33;1.30;;;1.10;;
65463;SDS011;52063;45.110;9.870;2023-03-17T04:24:58;1.20;;;1.00;;
65463;SDS011;52063;45.110;9.870;2023-03-17T04:27:24;1.50;;;1.30;;
65463;SDS011;52063;45.110;9.870;2023-03-17T04:29:49;2.17;;;1.30;;
65463;SDS011;52063;45.110;9.870;2023-03-17T04:32:15;1.47;;;1.30;;
65463;SDS011;52063;45.110;9.870;2023-03-17T04:34:40;2.90;;;1.17;;
65463;SDS011;52063;45.110;9.870;2023-03-17T04:37:07;1.27;;;1.15;;
65463;SDS011;52063;45.110;9.870;2023-03-17T04:39:33;1.33;;;1.23;;
65463;SDS011;52063;45.110;9.870;2023-03-17T04:41:59;1.55;;;1.00;;
65463;SDS011;52063;45.110;9.870;2023-03-17T04:44:24;1.40;;;1.20;;
65463;SDS011;52063;45.110;9.870;2023-03-17T04:46:50;1.87;;;1.50;;
65463;SDS011;52063;45.110;9.870;2023-03-17T04:49:16;1.30;;;1.00;;
65463;SDS011;52063;45.110;9.870;2023-03-17T04:51:42;1.60;;;1.20;;
65463;SDS011;52063;45.110;9.870;2023-03-17T04:54:07;1.30;;;1.20;;
65463;SDS011;52063;45.110;9.870;2023-03-17T04:56:33;1.77;;;1.17;;
65463;SDS011;52063;45.110;9.870;2023-03-17T04:58:58;1.20;;;1.00;;
65463;SDS011;52063;45.110;9.870;2023-03-17T05:01:24;1.20;;;1.00;;
65463;SDS011;52063;45.110;9.870;2023-03-17T05:03:50;2.55;;;1.30;;
65463;SDS011;52063;45.110;9.870;2023-03-17T05:06:15;1.50;;;1.23;;
65463;SDS011;52063;45.110;9.870;2023-03-17T05:08:41;1.33;;;1.15;;
65463;SDS011;52063;45.110;9.870;2023-03-17T05:11:09;1.33;;;1.20;;
65463;SDS011;52063;45.110;9.870;2023-03-17T05:13:35;2.70;;;1.20;;
65463;SDS011;52063;45.110;9.870;2023-03-17T05:16:00;2.33;;;1.08;;
65463;SDS011;52063;45.110;9.870;2023-03-17T05:18:26;1.77;;;0.90;;
65463;SDS011;52063;45.110;9.870;2023-03-17T05:20:52;1.65;;;1.08;;
65463;SDS011;52063;45.110;9.870;2023-03-17T05:23:17;1.50;;;1.17;;
65463;SDS011;52063;45.110;9.870;2023-03-17T05:25:43;1.67;;;1.20;;
65463;SDS011;52063;45.110;9.870;2023-03-17T05:28:08;2.28;;;1.20;;
65463;SDS011;52063;45.110;9.870;2023-03-17T05:30:34;1.93;;;1.10;;
65463;SDS011;52063;45.110;9.870;2023-03-17T05:33:02;1.85;;;1.40;;
65463;SDS011;52063;45.110;9.870;2023-03-17T05:35:28;3.90;;;1.40;;
65463;SDS011;52063;45.110;9.870;2023-03-17T05:37:53;3.73;;;1.03;;
65463;SDS011;52063;45.110;9.870;2023-03-17T05:40:19;1.60;;;1.10;;
65463;SDS011;52063;45.110;9.870;2023-03-17T05:42:45;2.90;;;1.00;;
65463;SDS011;52063;45.110;9.870;2023-03-17T05:45:11;1.60;;;0.90;;
65463;SDS011;52063;45.110;9.870;2023-03-17T05:47:37;1.85;;;1.00;;
65463;SDS011;52063;45.110;9.870;2023-03-17T05:50:02;5.10;;;1.10;;
65463;SDS011;52063;45.110;9.870;2023-03-17T05:52:29;1.27;;;1.10;;
65463;SDS011;52063;45.110;9.870;2023-03-17T05:54:55;1.95;;;1.30;;
65463;SDS011;52063;45.110;9.870;2023-03-17T05:57:21;1.40;;;1.13;;
65463;SDS011;52063;45.110;9.870;2023-03-17T05:59:47;2.33;;;1.10;;
65463;SDS011;52063;45.110;9.870;2023-03-17T06:02:13;2.55;;;1.50;;
65463;SDS011;52063;45.110;9.870;2023-03-17T06:04:39;1.85;;;1.38;;
65463;SDS011;52063;45.110;9.870;2023-03-17T06:07:06;4.00;;;1.00;;
65463;SDS011;52063;45.110;9.870;2023-03-17T06:09:33;1.73;;;1.10;;
65463;SDS011;52063;45.110;9.870;2023-03-17T06:11:59;5.70;;;1.25;;
65463;SDS011;52063;45.110;9.870;2023-03-17T06:14:24;2.33;;;1.03;;
65463;SDS011;52063;45.110;9.870;2023-03-17T06:16:50;1.40;;;1.20;;
65463;SDS011;52063;45.110;9.870;2023-03-17T06:19:15;1.55;;;1.10;;
65463;SDS011;52063;45.110;9.870;2023-03-17T06:21:41;1.53;;;1.07;;
65463;SDS011;52063;45.110;9.870;2023-03-17T06:24:07;2.53;;;1.30;;
65463;SDS011;52063;45.110;9.870;2023-03-17T06:26:32;2.60;;;1.20;;
65463;SDS011;52063;45.110;9.870;2023-03-17T06:28:58;1.48;;;1.20;;
65463;SDS011;52063;45.110;9.870;2023-03-17T06:31:24;1.57;;;1.10;;
65463;SDS011;52063;45.110;9.870;2023-03-17T06:33:50;4.82;;;1.13;;
65463;SDS011;52063;45.110;9.870;2023-03-17T06:36:16;2.15;;;1.15;;
65463;SDS011;52063;45.110;9.870;2023-03-17T06:38:42;1.10;;;0.77;;
65463;SDS011;52063;45.110;9.870;2023-03-17T06:41:07;1.13;;;1.02;;
65463;SDS011;52063;45.110;9.870;2023-03-17T06:43:33;1.73;;;0.80;;
65463;SDS011;52063;45.110;9.870;2023-03-17T06:45:59;1.93;;;1.20;;
65463;SDS011;52063;45.110;9.870;2023-03-17T06:48:25;1.10;;;1.00;;
65463;SDS011;52063;45.110;9.870;2023-03-17T06:50:51;4.43;;;1.00;;
65463;SDS011;52063;45.110;9.870;2023-03-17T06:53:16;1.10;;;0.90;;
65463;SDS011;52063;45.110;9.870;2023-03-17T06:55:42;2.73;;;1.20;;
65463;SDS011;52063;45.110;9.870;2023-03-17T06:58:07;2.10;;;1.03;;
65463;SDS011;52063;45.110;9.870;2023-03-17T07:00:35;1.10;;;0.87;;
65463;SDS011;52063;45.110;9.870;2023-03-17T07:03:02;0.93;;;0.70;;
65463;SDS011;52063;45.110;9.870;2023-03-17T07:05:28;1.42;;;1.00;;
65463;SDS011;52063;45.110;9.870;2023-03-17T07:07:54;1.87;;;1.10;;
65463;SDS011;52063;45.110;9.870;2023-03-17T07:10:19;1.58;;;1.10;;
65463;SDS011;52063;45.110;9.870;2023-03-17T07:12:47;1.47;;;1.00;;
65463;SDS011;52063;45.110;9.870;2023-03-17T07:15:13;1.98;;;1.00;;
65463;SDS011;52063;45.110;9.870;2023-03-17T07:17:39;1.23;;;1.00;;
65463;SDS011;52063;45.110;9.870;2023-03-17T07:20:05;2.05;;;1.00;;
65463;SDS011;52063;45.110;9.870;2023-03-17T07:22:31;1.70;;;1.10;;
65463;SDS011;52063;45.110;9.870;2023-03-17T07:24:57;1.40;;;0.93;;
65463;SDS011;52063;45.110;9.870;2023-03-17T07:27:22;2.17;;;1.10;;
65463;SDS011;52063;45.110;9.870;2023-03-17T07:29:49;1.60;;;1.10;;
65463;SDS011;52063;45.110;9.870;2023-03-17T07:32:15;2.50;;;1.13;;
65463;SDS011;52063;45.110;9.870;2023-03-17T07:34:40;1.87;;;1.03;;
65463;SDS011;52063;45.110;9.870;2023-03-17T07:37:06;2.07;;;1.20;;
65463;SDS011;52063;45.110;9.870;2023-03-17T07:39:32;2.67;;;1.20;;
65463;SDS011;52063;45.110;9.870;2023-03-17T07:41:57;1.40;;;1.13;;
65463;SDS011;52063;45.110;9.870;2023-03-17T07:44:23;1.67;;;1.00;;
65463;SDS011;52063;45.110;9.870;2023-03-17T07:46:50;2.23;;;0.87;;
65463;SDS011;52063;45.110;9.870;2023-03-17T07:49:16;3.72;;;1.23;;
65463;SDS011;52063;45.110;9.870;2023-03-17T07:51:41;1.30;;;0.93;;
65463;SDS011;52063;45.110;9.870;2023-03-17T07:54:07;1.67;;;0.90;;
65463;SDS011;52063;45.110;9.870;2023-03-17T07:56:34;2.15;;;1.15;;
65463;SDS011;52063;45.110;9.870;2023-03-17T07:59:00;1.30;;;1.10;;
65463;SDS011;52063;45.110;9.870;2023-03-17T08:01:26;1.52;;;1.00;;
65463;SDS011;52063;45.110;9.870;2023-03-17T08:03:52;1.80;;;1.00;;
65463;SDS011;52063;45.110;9.870;2023-03-17T08:06:18;1.20;;;1.03;;
65463;SDS011;52063;45.110;9.870;2023-03-17T08:08:43;3.67;;;1.02;;
65463;SDS011;52063;45.110;9.870;2023-03-17T08:11:10;1.50;;;1.10;;
65463;SDS011;52063;45.110;9.870;2023-03-17T08:13:36;2.50;;;1.03;;
65463;SDS011;52063;45.110;9.870;2023-03-17T08:16:02;2.80;;;1.35;;
65463;SDS011;52063;45.110;9.870;2023-03-17T08:18:29;2.25;;;1.10;;
65463;SDS011;52063;45.110;9.870;2023-03-17T08:20:55;1.77;;;0.90;;
65463;SDS011;52063;45.110;9.870;2023-03-17T08:23:20;1.63;;;0.87;;
65463;SDS011;52063;45.110;9.870;2023-03-17T08:25:46;2.03;;;1.13;;
65463;SDS011;52063;45.110;9.870;2023-03-17T08:28:13;1.30;;;1.00;;
65463;SDS011;52063;45.110;9.870;2023-03-17T08:30:40;1.95;;;1.13;;
65463;SDS011;52063;45.110;9.870;2023-03-17T08:33:06;1.55;;;1.00;;
65463;SDS011;52063;45.110;9.870;2023-03-17T08:35:33;1.30;;;0.98;;
65463;SDS011;52063;45.110;9.870;2023-03-17T08:37:59;1.15;;;0.80;;
65463;SDS011;52063;45.110;9.870;2023-03-17T08:40:26;2.10;;;1.00;;
65463;SDS011;52063;45.110;9.870;2023-03-17T08:42:52;3.40;;;1.10;;
65463;SDS011;52063;45.110;9.870;2023-03-17T08:45:17;1.93;;;1.10;;
65463;SDS011;52063;45.110;9.870;2023-03-17T08:47:43;1.93;;;0.90;;
65463;SDS011;52063;45.110;9.870;2023-03-17T08:50:13;1.10;;;0.82;;
65463;SDS011;52063;45.110;9.870;2023-03-17T08:52:40;2.00;;;1.20;;
65463;SDS011;52063;45.110;9.870;2023-03-17T08:55:06;1.93;;;0.80;;
65463;SDS011;52063;45.110;9.870;2023-03-17T08:57:33;1.30;;;1.20;;
65463;SDS011;52063;45.110;9.870;2023-03-17T09:00:00;1.23;;;1.07;;
65463;SDS011;52063;45.110;9.870;2023-03-17T09:02:26;2.03;;;1.00;;
65463;SDS011;52063;45.110;9.870;2023-03-17T09:04:52;2.35;;;0.90;;
65463;SDS011;52063;45.110;9.870;2023-03-17T09:07:18;1.20;;;1.10;;
65463;SDS011;52063;45.110;9.870;2023-03-17T09:09:44;2.80;;;1.20;;
65463;SDS011;52063;45.110;9.870;2023-03-17T09:12:12;2.80;;;1.03;;
65463;SDS011;52063;45.110;9.870;2023-03-17T09:14:38;1.20;;;1.00;;
65463;SDS011;52063;45.110;9.870;2023-03-17T09:17:05;1.65;;;1.00;;
65463;SDS011;52063;45.110;9.870;2023-03-17T09:19:32;1.92;;;1.30;;
65463;SDS011;52063;45.110;9.870;2023-03-17T09:21:57;1.43;;;0.90;;
65463;SDS011;52063;45.110;9.870;2023-03-17T09:24:22;1.33;;;1.23;;
65463;SDS011;52063;45.110;9.870;2023-03-17T09:26:48;1.92;;;1.38;;
65463;SDS011;52063;45.110;9.870;2023-03-17T09:29:13;1.30;;;1.20;;
65463;SDS011;52063;45.110;9.870;2023-03-17T09:31:39;1.50;;;1.40;;
65463;SDS011;52063;45.110;9.870;2023-03-17T09:34:05;1.05;;;0.95;;
65463;SDS011;52063;45.110;9.870;2023-03-17T09:36:31;2.13;;;1.00;;
65463;SDS011;52063;45.110;9.870;2023-03-17T09:39:00;1.75;;;1.10;;
65463;SDS011;52063;45.110;9.870;2023-03-17T09:44:47;1.40;;;1.10;;
65463;SDS011;52063;45.110;9.870;2023-03-17T09:49:55;1.30;;;1.15;;
65463;SDS011;52063;45.110;9.870;2023-03-17T09:52:30;2.72;;;1.10;;
65463;SDS011;52063;45.110;9.870;2023-03-17T09:54:56;2.22;;;1.20;;
65463;SDS011;52063;45.110;9.870;2023-03-17T09:57:29;1.67;;;0.90;;
65463;SDS011;52063;45.110;9.870;2023-03-17T10:00:02;1.83;;;1.27;;
65463;SDS011;52063;45.110;9.870;2023-03-17T10:02:33;9.27;;;1.80;;
65463;SDS011;52063;45.110;9.870;2023-03-17T10:05:06;26.45;;;3.10;;
65463;SDS011;52063;45.110;9.870;2023-03-17T10:07:41;26.08;;;3.20;;
65463;SDS011;52063;45.110;9.870;2023-03-17T10:19:27;4.40;;;2.70;;
65463;SDS011;52063;45.110;9.870;2023-03-17T10:22:01;8.50;;;2.70;;
65463;SDS011;52063;45.110;9.870;2023-03-17T10:24:28;6.23;;;3.00;;
65463;SDS011;52063;45.110;9.870;2023-03-17T10:26:56;7.68;;;2.63;;
65463;SDS011;52063;45.110;9.870;2023-03-17T10:29:24;5.50;;;2.67;;
65463;SDS011;52063;45.110;9.870;2023-03-17T10:31:50;3.30;;;2.70;;
65463;SDS011;52063;45.110;9.870;2023-03-17T10:34:21;3.70;;;2.90;;
65463;SDS011;52063;45.110;9.870;2023-03-17T10:36:53;3.13;;;2.72;;
65463;SDS011;52063;45.110;9.870;2023-03-17T10:39:25;2.88;;;2.60;;
65463;SDS011;52063;45.110;9.870;2023-03-17T10:46:53;5.70;;;2.50;;
65463;SDS011;52063;45.110;9.870;2023-03-17T10:49:19;3.35;;;2.42;;
65463;SDS011;52063;45.110;9.870;2023-03-17T10:51:47;3.60;;;2.25;;
65463;SDS011;52063;45.110;9.870;2023-03-17T10:54:18;6.22;;;2.67;;
65463;SDS011;52063;45.110;9.870;2023-03-17T10:56:45;5.30;;;2.60;;
65463;SDS011;52063;45.110;9.870;2023-03-17T10:59:58;3.72;;;2.20;;
65463;SDS011;52063;45.110;9.870;2023-03-17T11:02:17;2.85;;;2.10;;
65463;SDS011;52063;45.110;9.870;2023-03-17T11:04:45;2.20;;;1.98;;
65463;SDS011;52063;45.110;9.870;2023-03-17T11:07:18;4.10;;;2.43;;
65463;SDS011;52063;45.110;9.870;2023-03-17T11:09:59;2.65;;;2.10;;
65463;SDS011;52063;45.110;9.870;2023-03-17T11:12:27;7.28;;;3.40;;
65463;SDS011;52063;45.110;9.870;2023-03-17T11:14:58;6.38;;;3.72;;
65463;SDS011;52063;45.110;9.870;2023-03-17T11:17:30;6.13;;;3.10;;
65463;SDS011;52063;45.110;9.870;2023-03-17T11:25:08;5.28;;;2.95;;
65463;SDS011;52063;45.110;9.870;2023-03-17T11:27:34;3.55;;;2.20;;
65463;SDS011;52063;45.110;9.870;2023-03-17T11:30:30;3.03;;;1.90;;
65463;SDS011;52063;45.110;9.870;2023-03-17T11:33:09;2.45;;;1.73;;
65463;SDS011;52063;45.110;9.870;2023-03-17T11:38:29;2.30;;;1.70;;
65463;SDS011;52063;45.110;9.870;2023-03-17T11:49:19;3.05;;;1.85;;
65463;SDS011;52063;45.110;9.870;2023-03-17T11:57:00;2.20;;;1.47;;
65463;SDS011;52063;45.110;9.870;2023-03-17T12:02:03;1.60;;;1.40;;
65463;SDS011;52063;45.110;9.870;2023-03-17T12:04:41;1.90;;;1.50;;
65463;SDS011;52063;45.110;9.870;2023-03-17T12:07:23;2.25;;;1.58;;
65463;SDS011;52063;45.110;9.870;2023-03-17T12:09:56;1.90;;;1.20;;
65463;SDS011;52063;45.110;9.870;2023-03-17T12:12:46;2.22;;;1.40;;
65463;SDS011;52063;45.110;9.870;2023-03-17T12:29:14;1.77;;;1.25;;
65463;SDS011;52063;45.110;9.870;2023-03-17T12:31:44;2.33;;;1.27;;
65463;SDS011;52063;45.110;9.870;2023-03-17T12:34:20;4.53;;;1.10;;
65463;SDS011;52063;45.110;9.870;2023-03-17T12:36:50;4.40;;;1.07;;
65463;SDS011;52063;45.110;9.870;2023-03-17T12:39:27;3.35;;;1.20;;
65463;SDS011;52063;45.110;9.870;2023-03-17T12:50:30;1.53;;;0.90;;
65463;SDS011;52063;45.110;9.870;2023-03-17T12:53:06;3.85;;;0.90;;
65463;SDS011;52063;45.110;9.870;2023-03-17T12:55:44;2.03;;;1.10;;
65463;SDS011;52063;45.110;9.870;2023-03-17T13:01:00;3.35;;;1.10;;
65463;SDS011;52063;45.110;9.870;2023-03-17T13:03:31;1.60;;;1.00;;
65463;SDS011;52063;45.110;9.870;2023-03-17T13:06:05;2.40;;;1.30;;
65463;SDS011;52063;45.110;9.870;2023-03-17T13:08:38;1.40;;;1.10;;
65463;SDS011;52063;45.110;9.870;2023-03-17T13:13:49;1.98;;;1.10;;
65463;SDS011;52063;45.110;9.870;2023-03-17T13:16:28;2.27;;;0.77;;
65463;SDS011;52063;45.110;9.870;2023-03-17T13:19:20;2.38;;;1.02;;
65463;SDS011;52063;45.110;9.870;2023-03-17T13:25:00;1.20;;;0.90;;
65463;SDS011;52063;45.110;9.870;2023-03-17T13:30:44;1.50;;;0.83;;
65463;SDS011;52063;45.110;9.870;2023-03-17T13:32:54;1.88;;;1.00;;
65463;SDS011;52063;45.110;9.870;2023-03-17T13:35:24;2.42;;;0.90;;
65463;SDS011;52063;45.110;9.870;2023-03-17T13:40:45;1.38;;;1.20;;
65463;SDS011;52063;45.110;9.870;2023-03-17T13:43:24;1.80;;;0.83;;
65463;SDS011;52063;45.110;9.870;2023-03-17T13:45:51;1.40;;;0.95;;
65463;SDS011;52063;45.110;9.870;2023-03-17T13:48:29;1.98;;;1.10;;
65463;SDS011;52063;45.110;9.870;2023-03-17T13:51:16;1.67;;;0.90;;
65463;SDS011;52063;45.110;9.870;2023-03-17T13:53:46;1.95;;;1.10;;
65463;SDS011;52063;45.110;9.870;2023-03-17T14:04:16;2.22;;;1.00;;
65463;SDS011;52063;45.110;9.870;2023-03-17T14:06:43;2.83;;;0.93;;
65463;SDS011;52063;45.110;9.870;2023-03-17T14:09:15;2.50;;;1.20;;
65463;SDS011;52063;45.110;9.870;2023-03-17T14:11:47;1.17;;;1.00;;
65463;SDS011;52063;45.110;9.870;2023-03-17T14:14:17;1.33;;;0.90;;
65463;SDS011;52063;45.110;9.870;2023-03-17T14:20:00;1.60;;;1.10;;
65463;SDS011;52063;45.110;9.870;2023-03-17T14:22:30;2.07;;;0.80;;
65463;SDS011;52063;45.110;9.870;2023-03-17T14:24:59;1.80;;;1.20;;
65463;SDS011;52063;45.110;9.870;2023-03-17T14:27:25;1.30;;;0.90;;
65463;SDS011;52063;45.110;9.870;2023-03-17T14:29:51;3.03;;;1.00;;
65463;SDS011;52063;45.110;9.870;2023-03-17T14:32:17;1.40;;;0.90;;
65463;SDS011;52063;45.110;9.870;2023-03-17T14:34:45;1.40;;;0.90;;
65463;SDS011;52063;45.110;9.870;2023-03-17T14:37:13;2.13;;;1.00;;
65463;SDS011;52063;45.110;9.870;2023-03-17T14:39:46;1.60;;;0.90;;
65463;SDS011;52063;45.110;9.870;2023-03-17T14:42:13;1.70;;;1.20;;
65463;SDS011;52063;45.110;9.870;2023-03-17T14:44:39;2.85;;;1.00;;
65463;SDS011;52063;45.110;9.870;2023-03-17T14:47:12;2.10;;;1.07;;
65463;SDS011;52063;45.110;9.870;2023-03-17T14:49:43;1.45;;;1.08;;
65463;SDS011;52063;45.110;9.870;2023-03-17T14:52:43;2.13;;;1.15;;
65463;SDS011;52063;45.110;9.870;2023-03-17T14:55:05;1.87;;;1.13;;
65463;SDS011;52063;45.110;9.870;2023-03-17T14:57:32;1.00;;;0.80;;
65463;SDS011;52063;45.110;9.870;2023-03-17T15:00:03;1.60;;;1.15;;
65463;SDS011;52063;45.110;9.870;2023-03-17T15:02:51;1.80;;;1.38;;
65463;SDS011;52063;45.110;9.870;2023-03-17T15:05:26;2.40;;;1.27;;
65463;SDS011;52063;45.110;9.870;2023-03-17T15:07:52;1.10;;;0.80;;
65463;SDS011;52063;45.110;9.870;2023-03-17T15:10:19;1.60;;;1.10;;
65463;SDS011;52063;45.110;9.870;2023-03-17T15:12:46;3.25;;;1.20;;
65463;SDS011;52063;45.110;9.870;2023-03-17T15:15:22;1.00;;;0.90;;
65463;SDS011;52063;45.110;9.870;2023-03-17T15:17:57;1.87;;;1.07;;
65463;SDS011;52063;45.110;9.870;2023-03-17T15:20:26;2.75;;;1.02;;
65463;SDS011;52063;45.110;9.870;2023-03-17T15:25:25;1.33;;;1.10;;
65463;SDS011;52063;45.110;9.870;2023-03-17T15:28:10;1.10;;;0.70;;
65463;SDS011;52063;45.110;9.870;2023-03-17T15:30:43;2.13;;;1.40;;
65463;SDS011;52063;45.110;9.870;2023-03-17T15:35:54;1.20;;;0.90;;
65463;SDS011;52063;45.110;9.870;2023-03-17T15:38:21;3.22;;;1.33;;
65463;SDS011;52063;45.110;9.870;2023-03-17T15:40:47;1.20;;;0.90;;
65463;SDS011;52063;45.110;9.870;2023-03-17T15:43:13;2.63;;;1.30;;
65463;SDS011;52063;45.110;9.870;2023-03-17T15:45:40;1.70;;;1.05;;
65463;SDS011;52063;45.110;9.870;2023-03-17T15:48:29;1.08;;;0.90;;
65463;SDS011;52063;45.110;9.870;2023-03-17T15:50:55;1.42;;;1.17;;
65463;SDS011;52063;45.110;9.870;2023-03-17T15:53:23;2.00;;;1.17;;
65463;SDS011;52063;45.110;9.870;2023-03-17T15:55:48;1.40;;;1.00;;
65463;SDS011;52063;45.110;9.870;2023-03-17T15:58:14;1.30;;;1.00;;
65463;SDS011;52063;45.110;9.870;2023-03-17T16:00:39;1.40;;;0.90;;
65463;SDS011;52063;45.110;9.870;2023-03-17T16:05:37;2.00;;;1.10;;
65463;SDS011;52063;45.110;9.870;2023-03-17T16:08:02;1.67;;;1.23;;
65463;SDS011;52063;45.110;9.870;2023-03-17T16:10:29;1.73;;;1.00;;
65463;SDS011;52063;45.110;9.870;2023-03-17T16:12:55;2.03;;;1.00;;
65463;SDS011;52063;45.110;9.870;2023-03-17T16:15:22;1.20;;;0.90;;
65463;SDS011;52063;45.110;9.870;2023-03-17T16:17:50;1.45;;;0.70;;
65463;SDS011;52063;45.110;9.870;2023-03-17T16:20:23;1.60;;;1.20;;
65463;SDS011;52063;45.110;9.870;2023-03-17T16:22:51;1.15;;;0.75;;
65463;SDS011;52063;45.110;9.870;2023-03-17T16:25:23;2.20;;;1.00;;
65463;SDS011;52063;45.110;9.870;2023-03-17T16:27:50;1.73;;;0.93;;
65463;SDS011;52063;45.110;9.870;2023-03-17T16:30:20;1.30;;;0.90;;
65463;SDS011;52063;45.110;9.870;2023-03-17T16:32:47;1.42;;;0.93;;
65463;SDS011;52063;45.110;9.870;2023-03-17T16:35:14;1.65;;;0.88;;
65463;SDS011;52063;45.110;9.870;2023-03-17T16:37:40;1.27;;;1.00;;
65463;SDS011;52063;45.110;9.870;2023-03-17T16:40:14;1.60;;;0.90;;
65463;SDS011;52063;45.110;9.870;2023-03-17T16:42:45;1.58;;;0.88;;